createdAt,value
2022-10-09T00:01:06.199Z,95334.09
2022-10-09T00:03:33.236Z,95340.97
2022-10-09T00:05:59.853Z,95333.00
2022-10-09T00:08:26.612Z,95336.25
2022-10-09T00:10:53.369Z,95332.69
2022-10-09T00:13:20.080Z,95327.78
2022-10-09T00:15:47.802Z,95331.00
2022-10-09T00:18:16.287Z,95332.69
2022-10-09T00:20:45.505Z,95332.09
2022-10-09T00:23:17.507Z,95323.66
2022-10-09T00:25:54.482Z,95324.16
2022-10-09T00:28:22.183Z,95327.34
2022-10-09T00:30:49.041Z,95329.47
2022-10-09T00:33:15.955Z,95306.38
2022-10-09T00:35:42.757Z,95314.31
2022-10-09T00:38:09.463Z,95327.69
2022-10-09T00:40:36.712Z,95326.63
2022-10-09T00:43:04.048Z,95327.97
2022-10-09T00:45:31.589Z,95303.78
2022-10-09T00:48:00.971Z,95316.34
2022-10-09T00:50:50.336Z,95314.69
2022-10-09T00:53:18.704Z,95306.66
2022-10-09T00:55:45.823Z,95293.59
2022-10-09T00:58:13.066Z,95308.97
2022-10-09T01:00:40.232Z,95309.69
2022-10-09T01:03:07.186Z,95314.09
2022-10-09T01:06:07.775Z,95304.53
2022-10-09T01:08:48.181Z,95297.31
2022-10-09T01:11:29.046Z,95294.22
2022-10-09T01:13:58.033Z,95298.44
2022-10-09T01:16:28.439Z,95293.72
2022-10-09T01:19:06.801Z,95286.50
2022-10-09T01:22:01.316Z,95291.13
2022-10-09T01:24:39.361Z,95285.19
2022-10-09T01:27:25.941Z,95284.50
2022-10-09T01:29:56.077Z,95281.53
2022-10-09T01:32:25.749Z,95277.03
2022-10-09T01:34:52.942Z,95265.53
2022-10-09T01:37:20.565Z,95270.03
2022-10-09T01:39:48.600Z,95267.03
2022-10-09T01:42:16.151Z,95268.03
2022-10-09T01:44:42.945Z,95261.16
2022-10-09T01:47:20.301Z,95266.00
2022-10-09T01:50:06.825Z,95261.50
2022-10-09T01:52:33.373Z,95249.88
2022-10-09T01:55:02.549Z,95254.84
2022-10-09T01:57:37.437Z,95250.97
2022-10-09T02:00:08.578Z,95238.28
2022-10-09T02:02:36.039Z,95238.63
2022-10-09T02:05:03.152Z,95242.53
2022-10-09T02:07:31.481Z,95239.53
2022-10-09T02:09:59.776Z,95224.13
2022-10-09T02:12:28.308Z,95218.72
2022-10-09T02:14:54.917Z,95229.09
2022-10-09T02:17:25.022Z,95229.31
2022-10-09T02:19:55.669Z,95220.56
2022-10-09T02:22:26.324Z,95208.97
2022-10-09T02:24:53.189Z,95212.28
2022-10-09T02:27:21.381Z,95225.78
2022-10-09T02:29:48.430Z,95209.72
2022-10-09T02:32:15.118Z,95215.13
2022-10-09T02:34:41.781Z,95211.38
2022-10-09T02:37:08.762Z,95199.66
2022-10-09T02:39:35.450Z,95200.84
2022-10-09T02:42:02.614Z,95208.53
2022-10-09T02:44:29.208Z,95198.09
2022-10-09T02:46:55.864Z,95210.53
2022-10-09T02:49:22.489Z,95198.34
2022-10-09T02:51:49.199Z,95194.19
2022-10-09T02:54:15.833Z,95195.13
2022-10-09T02:56:42.438Z,95199.50
2022-10-09T02:59:09.198Z,95187.66
2022-10-09T03:01:36.332Z,95195.38
2022-10-09T03:04:03.067Z,95187.44
2022-10-09T03:06:29.958Z,95200.00
2022-10-09T03:08:56.987Z,95203.56
2022-10-09T03:11:25.281Z,95194.44
2022-10-09T03:13:52.082Z,95191.22
2022-10-09T03:16:23.833Z,95210.19
2022-10-09T03:18:51.581Z,95202.38
2022-10-09T03:21:24.025Z,95198.47
2022-10-09T03:23:51.151Z,95203.25
2022-10-09T03:26:20.051Z,95195.75
2022-10-09T03:28:48.985Z,95200.25
2022-10-09T03:31:33.425Z,95208.09
2022-10-09T03:34:03.709Z,95196.25
2022-10-09T03:36:30.316Z,95189.41
2022-10-09T03:38:56.931Z,95194.25
2022-10-09T03:41:23.558Z,95186.41
2022-10-09T03:43:50.184Z,95188.69
2022-10-09T03:46:16.906Z,95185.81
2022-10-09T03:48:43.581Z,95196.03
2022-10-09T03:51:10.184Z,95199.34
2022-10-09T03:53:36.815Z,95193.66
2022-10-09T03:56:03.461Z,95191.28
2022-10-09T03:58:30.099Z,95209.06
2022-10-09T04:00:56.978Z,95206.94
2022-10-09T04:03:23.818Z,95194.50
2022-10-09T04:05:50.453Z,95197.34
2022-10-09T04:08:17.094Z,95185.84
2022-10-09T04:10:45.785Z,95191.28
2022-10-09T04:13:12.450Z,95202.22
2022-10-09T04:15:39.150Z,95198.19
2022-10-09T04:18:06.146Z,95195.09
2022-10-09T04:20:33.014Z,95175.09
2022-10-09T04:22:59.775Z,95184.66
2022-10-09T04:25:26.406Z,95202.22
2022-10-09T04:27:53.042Z,95184.91
2022-10-09T04:30:19.668Z,95180.75
2022-10-09T04:32:47.932Z,95190.69
2022-10-09T04:35:14.992Z,95185.38
2022-10-09T04:37:41.684Z,95173.31
2022-10-09T04:40:08.715Z,95186.56
2022-10-09T04:42:35.336Z,95178.16
2022-10-09T04:45:02.011Z,95168.78
2022-10-09T04:47:28.608Z,95170.69
2022-10-09T04:49:55.225Z,95170.47
2022-10-09T04:52:21.821Z,95162.88
2022-10-09T04:54:48.432Z,95166.44
2022-10-09T04:57:15.044Z,95160.06
2022-10-09T04:59:41.721Z,95150.34
2022-10-09T05:02:08.421Z,95161.13
2022-10-09T05:04:35.120Z,95157.31
2022-10-09T05:07:01.814Z,95160.53
2022-10-09T05:09:28.406Z,95161.94
2022-10-09T05:11:55.161Z,95160.84
2022-10-09T05:14:21.916Z,95161.94
2022-10-09T05:17:12.506Z,95168.69
2022-10-09T05:19:38.971Z,95163.72
2022-10-09T05:22:05.606Z,95159.19
2022-10-09T05:24:32.389Z,95154.59
2022-10-09T05:26:59.017Z,95165.72
2022-10-09T05:29:25.621Z,95161.22
2022-10-09T05:31:52.307Z,95161.22
2022-10-09T05:34:19.033Z,95172.00
2022-10-09T05:36:45.791Z,95173.53
2022-10-09T05:39:12.630Z,95161.34
2022-10-09T05:41:39.213Z,95159.31
2022-10-09T05:44:05.917Z,95154.38
2022-10-09T05:46:32.710Z,95149.16
2022-10-09T05:49:01.882Z,95155.31
2022-10-09T05:51:33.109Z,95157.81
2022-10-09T05:54:02.038Z,95161.69
2022-10-09T05:56:33.542Z,95143.84
2022-10-09T05:59:02.319Z,95156.75
2022-10-09T06:01:57.592Z,95154.59
2022-10-09T06:04:25.033Z,95162.19
2022-10-09T06:06:52.077Z,95162.41
2022-10-09T06:09:25.386Z,95144.53
2022-10-09T06:11:53.458Z,95155.88
2022-10-09T06:14:24.469Z,95152.81
2022-10-09T06:16:51.361Z,95166.44
2022-10-09T06:19:19.387Z,95170.72
2022-10-09T06:21:47.242Z,95174.50
2022-10-09T06:24:27.277Z,95162.66
2022-10-09T06:26:56.999Z,95165.50
2022-10-09T06:29:23.619Z,95162.16
2022-10-09T06:31:51.421Z,95163.13
2022-10-09T06:34:18.109Z,95169.97
2022-10-09T06:36:44.729Z,95173.06
2022-10-09T06:39:11.421Z,95170.94
2022-10-09T06:41:38.045Z,95176.16
2022-10-09T06:44:07.588Z,95159.44
2022-10-09T06:46:39.025Z,95171.88
2022-10-09T06:49:06.673Z,95168.56
2022-10-09T06:51:34.356Z,95181.09
2022-10-09T06:54:03.048Z,95178.25
2022-10-09T06:56:31.808Z,95181.31
2022-10-09T06:59:02.029Z,95181.91
2022-10-09T07:01:32.654Z,95180.22
2022-10-09T07:04:05.790Z,95181.78
2022-10-09T07:06:33.611Z,95176.19
2022-10-09T07:09:04.406Z,95190.91
2022-10-09T07:11:33.718Z,95186.22
2022-10-09T07:14:01.976Z,95186.69
2022-10-09T07:16:31.369Z,95183.94
2022-10-09T07:18:58.229Z,95171.69
2022-10-09T07:21:24.920Z,95180.56
2022-10-09T07:23:51.556Z,95172.44
2022-10-09T07:26:21.661Z,95183.53
2022-10-09T07:28:48.853Z,95166.41
2022-10-09T07:31:16.039Z,95177.81
2022-10-09T07:33:42.907Z,95173.94
2022-10-09T07:36:10.183Z,95163.03
2022-10-09T07:38:37.277Z,95174.75
2022-10-09T07:41:09.436Z,95160.38
2022-10-09T07:43:37.118Z,95162.44
2022-10-09T07:46:05.405Z,95158.47
2022-10-09T07:48:32.333Z,95164.81
2022-10-09T07:51:10.652Z,95169.13
2022-10-09T07:53:38.697Z,95164.28
2022-10-09T07:56:05.943Z,95160.38
2022-10-09T07:58:33.430Z,95167.91
2022-10-09T08:01:07.487Z,95169.00
2022-10-09T08:03:35.105Z,95165.44
2022-10-09T08:06:03.074Z,95157.94
2022-10-09T08:08:29.724Z,95155.72
2022-10-09T08:10:57.429Z,95164.38
2022-10-09T08:13:25.111Z,95148.13
2022-10-09T08:15:51.874Z,95151.03
2022-10-09T08:18:19.574Z,95154.56
2022-10-09T08:20:56.608Z,95155.91
2022-10-09T08:23:23.216Z,95147.72
2022-10-09T08:25:56.140Z,95153.50
2022-10-09T08:28:23.205Z,95150.88
2022-10-09T08:30:50.016Z,95148.88
2022-10-09T08:33:21.814Z,95151.38
2022-10-09T08:35:49.946Z,95153.13
2022-10-09T08:38:37.417Z,95148.19
2022-10-09T08:41:14.702Z,95150.66
2022-10-09T08:43:45.698Z,95154.34
2022-10-09T08:46:23.686Z,95144.00
2022-10-09T08:48:51.888Z,95129.22
2022-10-09T08:51:25.781Z,95141.28
2022-10-09T08:54:01.813Z,95143.25
2022-10-09T08:56:29.341Z,95131.41
2022-10-09T08:58:56.213Z,95138.03
2022-10-09T09:01:45.552Z,95139.56
2022-10-09T09:04:25.533Z,95134.13
2022-10-09T09:06:57.802Z,95126.69
2022-10-09T09:09:46.333Z,95127.50
2022-10-09T09:12:19.703Z,95126.03
2022-10-09T09:15:13.409Z,95123.09
2022-10-09T09:17:59.089Z,95121.75
2022-10-09T09:20:43.660Z,95105.75
2022-10-09T09:23:14.550Z,95108.00
2022-10-09T09:25:43.212Z,95104.00
2022-10-09T09:28:23.940Z,95096.59
2022-10-09T09:30:58.174Z,95109.13
2022-10-09T09:33:45.887Z,95107.22
2022-10-09T09:36:19.947Z,95085.06
2022-10-09T09:39:24.896Z,95097.00
2022-10-09T09:41:33.629Z,95096.22
2022-10-09T09:44:00.242Z,95089.75
2022-10-09T09:46:29.622Z,95078.53
2022-10-09T09:48:56.428Z,95071.19
2022-10-09T09:51:29.335Z,95093.78
2022-10-09T09:54:00.342Z,95077.56
2022-10-09T09:57:06.981Z,95085.09
2022-10-09T09:59:27.844Z,95084.63
2022-10-09T10:02:02.122Z,95080.03
2022-10-09T10:04:28.857Z,95076.19
2022-10-09T10:06:55.627Z,95076.47
2022-10-09T10:09:22.249Z,95060.41
2022-10-09T10:11:57.016Z,95068.66
2022-10-09T10:14:23.818Z,95083.91
2022-10-09T10:16:52.246Z,95065.03
2022-10-09T10:19:25.222Z,95068.78
2022-10-09T10:21:57.182Z,95075.78
2022-10-09T10:24:28.138Z,95044.28
2022-10-09T10:27:00.393Z,95043.88
2022-10-09T10:29:39.281Z,95062.94
2022-10-09T10:32:14.940Z,95066.84
2022-10-09T10:34:44.522Z,95059.69
2022-10-09T10:37:15.035Z,95062.19
2022-10-09T10:39:50.324Z,95050.47
2022-10-09T10:42:22.721Z,95027.25
2022-10-09T10:44:55.225Z,95046.78
2022-10-09T10:47:24.533Z,95034.19
2022-10-09T10:49:51.224Z,95036.31
2022-10-09T10:52:17.794Z,95055.47
2022-10-09T10:55:26.905Z,95053.63
2022-10-09T10:58:25.850Z,95046.06
2022-10-09T11:01:21.708Z,95046.97
2022-10-09T11:04:30.053Z,95049.13
2022-10-09T11:07:02.884Z,95043.06
2022-10-09T11:09:44.655Z,95039.16
2022-10-09T11:12:46.815Z,95044.06
2022-10-09T11:15:37.908Z,95035.41
2022-10-09T11:18:20.561Z,95038.88
2022-10-09T11:21:11.816Z,95050.00
2022-10-09T11:23:57.372Z,95036.22
2022-10-09T11:26:46.532Z,95040.13
2022-10-09T11:29:27.605Z,95016.94
2022-10-09T11:31:59.818Z,95020.78
2022-10-09T11:34:59.662Z,95031.19
2022-10-09T11:37:31.471Z,95026.97
2022-10-09T11:39:58.136Z,95022.38
2022-10-09T11:42:25.934Z,95023.06
2022-10-09T11:45:29.923Z,95017.19
2022-10-09T11:48:30.451Z,95012.28
2022-10-09T11:50:59.993Z,95010.88
2022-10-09T11:53:27.969Z,94998.88
2022-10-09T11:56:06.344Z,94993.22
2022-10-09T11:58:33.245Z,94995.03
2022-10-09T12:01:12.769Z,94995.38
2022-10-09T12:03:40.151Z,94986.50
2022-10-09T12:06:11.372Z,94994.53
2022-10-09T12:08:53.765Z,94984.06
2022-10-09T12:11:20.421Z,94985.34
2022-10-09T12:13:51.091Z,94982.31
2022-10-09T12:16:29.964Z,94990.44
2022-10-09T12:19:00.860Z,94979.66
2022-10-09T12:21:56.665Z,94977.19
2022-10-09T12:24:26.417Z,94978.19
2022-10-09T12:26:55.725Z,94979.19
2022-10-09T12:29:32.334Z,94982.03
2022-10-09T12:32:04.239Z,94974.78
2022-10-09T12:34:33.920Z,94962.81
2022-10-09T12:37:20.890Z,94960.38
2022-10-09T12:39:49.926Z,94945.88
2022-10-09T12:42:20.859Z,94941.91
2022-10-09T12:44:49.669Z,94956.03
2022-10-09T12:47:22.177Z,94952.94
2022-10-09T12:50:24.547Z,94950.19
2022-10-09T12:53:02.548Z,94943.09
2022-10-09T12:55:32.836Z,94943.41
2022-10-09T12:58:06.207Z,94926.38
2022-10-09T13:00:34.222Z,94926.16
2022-10-09T13:03:01.618Z,94918.38
2022-10-09T13:05:41.715Z,94932.75
2022-10-09T13:08:29.477Z,94917.81
2022-10-09T13:11:38.097Z,94919.00
2022-10-09T13:14:05.368Z,94920.09
2022-10-09T13:16:45.148Z,94914.72
2022-10-09T13:19:25.347Z,94909.88
2022-10-09T13:22:06.692Z,94900.44
2022-10-09T13:24:35.818Z,94899.66
2022-10-09T13:27:04.074Z,94899.22
2022-10-09T13:29:31.469Z,94893.06
2022-10-09T13:31:58.593Z,94887.75
2022-10-09T13:34:28.394Z,94885.00
2022-10-09T13:36:56.394Z,94887.84
2022-10-09T13:39:22.998Z,94886.72
2022-10-09T13:41:53.091Z,94885.66
2022-10-09T13:44:19.776Z,94890.56
2022-10-09T13:46:46.376Z,94884.91
2022-10-09T13:49:13.023Z,94879.63
2022-10-09T13:51:39.636Z,94874.09
2022-10-09T13:54:06.260Z,94872.44
2022-10-09T13:56:33.986Z,94874.25
2022-10-09T13:59:00.709Z,94858.97
2022-10-09T14:01:27.368Z,94866.66
2022-10-09T14:03:54.525Z,94862.72
2022-10-09T14:06:22.502Z,94846.88
2022-10-09T14:08:49.849Z,94856.00
2022-10-09T14:11:16.614Z,94864.56
2022-10-09T14:13:43.208Z,94864.47
2022-10-09T14:16:11.260Z,94854.09
2022-10-09T14:18:38.320Z,94849.09
2022-10-09T14:21:14.041Z,94842.94
2022-10-09T14:23:41.887Z,94848.00
2022-10-09T14:26:08.549Z,94834.97
2022-10-09T14:28:35.304Z,94838.31
2022-10-09T14:31:07.454Z,94838.91
2022-10-09T14:33:34.165Z,94838.66
2022-10-09T14:36:11.959Z,94842.56
2022-10-09T14:38:39.308Z,94834.97
2022-10-09T14:41:07.204Z,94842.97
2022-10-09T14:43:33.824Z,94828.44
2022-10-09T14:46:09.199Z,94832.19
2022-10-09T14:48:36.038Z,94809.94
2022-10-09T14:51:07.070Z,94821.91
2022-10-09T14:53:34.112Z,94829.91
2022-10-09T14:56:02.652Z,94822.69
2022-10-09T14:58:31.081Z,94812.66
2022-10-09T15:00:58.079Z,94804.63
2022-10-09T15:03:25.801Z,94812.28
2022-10-09T15:05:52.531Z,94816.06
2022-10-09T15:08:19.225Z,94803.25
2022-10-09T15:10:45.849Z,94811.84
2022-10-09T15:13:12.493Z,94809.78
2022-10-09T15:15:40.086Z,94814.75
2022-10-09T15:18:06.852Z,94802.41
2022-10-09T15:20:33.497Z,94807.88
2022-10-09T15:23:00.154Z,94801.34
2022-10-09T15:25:31.555Z,94792.31
2022-10-09T15:28:01.891Z,94797.44
2022-10-09T15:30:29.103Z,94786.25
2022-10-09T15:32:56.459Z,94794.53
2022-10-09T15:35:23.146Z,94794.94
2022-10-09T15:37:53.732Z,94792.78
2022-10-09T15:40:22.344Z,94788.50
2022-10-09T15:42:49.325Z,94775.69
2022-10-09T15:45:16.113Z,94789.00
2022-10-09T15:47:50.923Z,94788.66
2022-10-09T15:50:18.111Z,94779.03
2022-10-09T15:52:44.782Z,94777.31
2022-10-09T15:55:11.459Z,94770.09
2022-10-09T15:57:38.099Z,94775.84
2022-10-09T16:00:05.256Z,94772.59
2022-10-09T16:02:31.929Z,94772.34
2022-10-09T16:04:58.525Z,94781.78
2022-10-09T16:07:25.160Z,94778.41
2022-10-09T16:09:51.821Z,94771.31
2022-10-09T16:12:18.420Z,94756.66
2022-10-09T16:14:45.048Z,94773.53
2022-10-09T16:17:11.690Z,94767.81
2022-10-09T16:19:38.309Z,94769.06
2022-10-09T16:22:06.021Z,94761.78
2022-10-09T16:24:32.790Z,94768.47
2022-10-09T16:27:01.418Z,94769.59
2022-10-09T16:29:28.089Z,94765.94
2022-10-09T16:31:56.245Z,94760.25
2022-10-09T16:34:22.928Z,94761.19
2022-10-09T16:36:49.569Z,94767.31
2022-10-09T16:39:17.333Z,94756.63
2022-10-09T16:41:43.933Z,94763.25
2022-10-09T16:44:14.311Z,94770.44
2022-10-09T16:46:40.940Z,94770.75
2022-10-09T16:49:07.593Z,94747.72
2022-10-09T16:51:36.169Z,94759.88
2022-10-09T16:54:04.956Z,94777.69
2022-10-09T16:56:35.083Z,94774.50
2022-10-09T16:59:05.305Z,94779.53
2022-10-09T17:01:32.527Z,94774.19
2022-10-09T17:04:00.005Z,94781.16
2022-10-09T17:06:27.666Z,94783.66
2022-10-09T17:08:56.496Z,94781.84
2022-10-09T17:11:23.907Z,94788.84
2022-10-09T17:13:50.597Z,94777.13
2022-10-09T17:16:20.765Z,94789.59
2022-10-09T17:18:48.470Z,94782.56
2022-10-09T17:21:15.973Z,94788.47
2022-10-09T17:23:42.641Z,94787.00
2022-10-09T17:26:12.252Z,94792.47
2022-10-09T17:28:40.954Z,94793.97
2022-10-09T17:31:16.481Z,94774.25
2022-10-09T17:33:46.204Z,94785.78
2022-10-09T17:36:17.617Z,94788.03
2022-10-09T17:38:44.857Z,94784.53
2022-10-09T17:41:12.682Z,94779.41
2022-10-09T17:43:39.612Z,94781.03
2022-10-09T17:46:06.818Z,94780.13
2022-10-09T17:48:34.806Z,94788.97
2022-10-09T17:51:04.012Z,94781.03
2022-10-09T17:53:31.288Z,94778.19
2022-10-09T17:56:02.804Z,94774.59
2022-10-09T17:58:30.405Z,94786.31
2022-10-09T18:00:57.109Z,94755.16
2022-10-09T18:03:23.796Z,94784.91
2022-10-09T18:05:50.888Z,94780.16
2022-10-09T18:08:18.930Z,94774.69
2022-10-09T18:10:45.908Z,94776.44
2022-10-09T18:13:12.542Z,94776.06
2022-10-09T18:15:43.858Z,94789.06
2022-10-09T18:18:11.209Z,94786.03
2022-10-09T18:20:39.708Z,94768.16
2022-10-09T18:23:07.639Z,94788.69
2022-10-09T18:25:34.530Z,94779.94
2022-10-09T18:28:01.139Z,94752.88
2022-10-09T18:30:27.874Z,94774.81
2022-10-09T18:32:54.506Z,94772.19
2022-10-09T18:35:21.389Z,94770.50
2022-10-09T18:37:48.018Z,94758.16
2022-10-09T18:40:15.641Z,94768.44
2022-10-09T18:42:42.261Z,94757.97
2022-10-09T18:45:10.601Z,94766.19
2022-10-09T18:47:37.340Z,94752.00
2022-10-09T18:50:08.148Z,94754.81
2022-10-09T18:52:35.695Z,94753.97
2022-10-09T18:55:02.877Z,94759.75
2022-10-09T18:57:29.719Z,94751.88
2022-10-09T18:59:57.677Z,94755.72
2022-10-09T19:02:27.040Z,94752.63
2022-10-09T19:04:54.682Z,94751.53
2022-10-09T19:07:22.632Z,94755.38
2022-10-09T19:09:53.545Z,94733.03
2022-10-09T19:12:23.170Z,94751.72
2022-10-09T19:14:49.986Z,94745.22
2022-10-09T19:17:16.604Z,94751.44
2022-10-09T19:19:43.252Z,94745.50
2022-10-09T19:22:14.818Z,94749.25
2022-10-09T19:24:43.828Z,94738.13
2022-10-09T19:27:10.473Z,94738.66
2022-10-09T19:29:37.202Z,94731.66
2022-10-09T19:32:04.154Z,94737.97
2022-10-09T19:34:31.004Z,94739.75
2022-10-09T19:36:57.807Z,94741.19
2022-10-09T19:39:24.729Z,94742.66
2022-10-09T19:41:51.383Z,94744.31
2022-10-09T19:44:18.697Z,94750.34
2022-10-09T19:46:45.886Z,94748.31
2022-10-09T19:49:12.529Z,94740.69
2022-10-09T19:51:39.230Z,94740.84
2022-10-09T19:54:06.895Z,94731.31
2022-10-09T19:56:34.737Z,94729.69
2022-10-09T19:59:03.269Z,94716.28
2022-10-09T20:01:31.027Z,94729.28
2022-10-09T20:03:59.789Z,94732.94
2022-10-09T20:06:27.533Z,94724.66
2022-10-09T20:08:54.637Z,94733.75
2022-10-09T20:11:21.568Z,94724.47
2022-10-09T20:13:53.450Z,94727.66
2022-10-09T20:16:23.112Z,94732.47
2022-10-09T20:18:49.756Z,94732.69
2022-10-09T20:21:18.178Z,94722.75
2022-10-09T20:23:45.023Z,94734.66
2022-10-09T20:26:14.395Z,94729.38
2022-10-09T20:28:41.410Z,94737.56
2022-10-09T20:31:14.716Z,94727.13
2022-10-09T20:33:42.109Z,94731.22
2022-10-09T20:36:18.084Z,94722.09
2022-10-09T20:38:44.709Z,94736.03
2022-10-09T20:41:11.899Z,94720.66
2022-10-09T20:43:40.253Z,94733.38
2022-10-09T20:46:12.467Z,94737.84
2022-10-09T20:48:39.861Z,94737.31
2022-10-09T20:51:06.721Z,94729.53
2022-10-09T20:53:33.733Z,94737.31
2022-10-09T20:56:05.828Z,94734.19
2022-10-09T20:58:32.748Z,94736.41
2022-10-09T21:00:59.517Z,94742.69
2022-10-09T21:03:26.493Z,94718.97
2022-10-09T21:05:53.109Z,94729.22
2022-10-09T21:08:19.816Z,94719.38
2022-10-09T21:10:48.368Z,94734.50
2022-10-09T21:13:15.437Z,94736.78
2022-10-09T21:15:44.410Z,94741.81
2022-10-09T21:18:11.509Z,94739.22
2022-10-09T21:20:39.667Z,94746.13
2022-10-09T21:23:06.785Z,94747.16
2022-10-09T21:25:33.913Z,94744.78
2022-10-09T21:28:00.721Z,94741.28
2022-10-09T21:30:28.421Z,94741.97
2022-10-09T21:32:55.592Z,94745.59
2022-10-09T21:35:23.532Z,94739.38
2022-10-09T21:37:51.173Z,94737.56
2022-10-09T21:40:18.230Z,94738.66
2022-10-09T21:42:44.903Z,94732.44
2022-10-09T21:45:13.591Z,94741.44
2022-10-09T21:47:40.228Z,94746.75
2022-10-09T21:50:07.411Z,94737.66
2022-10-09T21:52:34.075Z,94724.44
2022-10-09T21:55:00.677Z,94745.13
2022-10-09T21:57:27.311Z,94724.44
2022-10-09T21:59:53.926Z,94744.56
2022-10-09T22:02:20.617Z,94743.13
2022-10-09T22:04:47.307Z,94734.28
2022-10-09T22:07:13.952Z,94739.72
2022-10-09T22:09:40.583Z,94746.38
2022-10-09T22:12:07.229Z,94740.38
2022-10-09T22:14:33.823Z,94743.28
2022-10-09T22:17:00.432Z,94747.91
2022-10-09T22:19:27.077Z,94749.63
2022-10-09T22:21:53.710Z,94729.75
2022-10-09T22:24:20.329Z,94742.06
2022-10-09T22:26:46.953Z,94738.78
2022-10-09T22:29:13.585Z,94738.97
2022-10-09T22:31:40.266Z,94722.31
2022-10-09T22:34:06.920Z,94727.88
2022-10-09T22:36:33.783Z,94732.22
2022-10-09T22:39:02.481Z,94740.06
2022-10-09T22:41:30.372Z,94743.56
2022-10-09T22:43:58.530Z,94732.78
2022-10-09T22:46:32.833Z,94746.19
2022-10-09T22:49:00.089Z,94743.34
2022-10-09T22:51:28.482Z,94728.88
2022-10-09T22:53:56.193Z,94729.88
2022-10-09T22:56:28.812Z,94749.97
2022-10-09T22:58:56.151Z,94748.69
2022-10-09T23:01:27.261Z,94740.41
2022-10-09T23:03:53.932Z,94738.00
2022-10-09T23:06:20.728Z,94744.19
2022-10-09T23:08:48.529Z,94729.19
2022-10-09T23:11:16.528Z,94736.72
2022-10-09T23:13:43.789Z,94734.00
2022-10-09T23:16:11.900Z,94725.09
2022-10-09T23:18:38.880Z,94721.66
2022-10-09T23:21:08.253Z,94731.34
2022-10-09T23:23:35.157Z,94740.50
2022-10-09T23:26:09.644Z,94737.56
2022-10-09T23:28:36.408Z,94730.13
2022-10-09T23:31:05.254Z,94744.44
2022-10-09T23:33:31.923Z,94739.78
2022-10-09T23:35:58.878Z,94742.38
2022-10-09T23:38:25.512Z,94733.81
2022-10-09T23:40:59.114Z,94741.66
2022-10-09T23:43:26.181Z,94729.81
2022-10-09T23:45:55.122Z,94726.53
2022-10-09T23:48:21.985Z,94711.75
2022-10-09T23:50:49.507Z,94724.88
2022-10-09T23:53:17.071Z,94726.88
2022-10-09T23:55:44.543Z,94728.22
2022-10-09T23:58:12.462Z,94737.81
